createdAt,value
2018-12-06T00:01:20.427Z,15.70
2018-12-06T00:03:48.215Z,17.77
2018-12-06T00:06:16.006Z,21.30
2018-12-06T00:08:45.843Z,10.33
2018-12-06T00:11:13.502Z,13.23
2018-12-06T00:13:41.117Z,9.73
2018-12-06T00:16:08.742Z,14.30
2018-12-06T00:18:36.543Z,11.20
2018-12-06T00:21:04.186Z,15.90
2018-12-06T00:23:31.805Z,11.33
2018-12-06T00:25:59.429Z,15.20
2018-12-06T00:28:27.180Z,13.10
2018-12-06T00:30:55.719Z,12.77
2018-12-06T00:33:23.337Z,15.00
2018-12-06T00:35:50.954Z,12.77
2018-12-06T00:38:18.659Z,10.73
2018-12-06T00:40:46.394Z,13.77
2018-12-06T00:43:14.842Z,11.73
2018-12-06T00:45:43.771Z,21.00
2018-12-06T00:48:12.381Z,13.10
2018-12-06T00:50:40.018Z,10.37
2018-12-06T00:53:07.638Z,13.17
2018-12-06T00:55:36.071Z,13.20
2018-12-06T00:58:04.392Z,12.43
2018-12-06T01:00:33.023Z,9.37
2018-12-06T01:03:00.821Z,9.73
2018-12-06T01:05:28.627Z,13.20
2018-12-06T01:07:56.254Z,19.23
2018-12-06T01:10:23.879Z,13.87
2018-12-06T01:12:52.351Z,21.63
2018-12-06T01:15:19.967Z,16.00
2018-12-06T01:17:47.589Z,11.33
2018-12-06T01:20:15.255Z,14.70
2018-12-06T01:22:43.733Z,8.27
2018-12-06T01:25:11.621Z,14.90
2018-12-06T01:27:39.326Z,11.77
2018-12-06T01:30:07.318Z,20.57
2018-12-06T01:32:34.937Z,16.90
2018-12-06T01:35:02.551Z,7.97
2018-12-06T01:37:31.184Z,12.50
2018-12-06T01:39:58.893Z,13.07
2018-12-06T01:42:26.506Z,14.13
2018-12-06T01:44:54.119Z,11.13
2018-12-06T01:47:21.742Z,17.10
2018-12-06T01:49:49.470Z,11.43
2018-12-06T01:52:17.358Z,20.23
2018-12-06T01:54:44.973Z,9.90
2018-12-06T01:57:12.591Z,9.30
2018-12-06T01:59:40.256Z,10.40
2018-12-06T02:02:08.016Z,20.03
2018-12-06T02:04:35.676Z,10.57
2018-12-06T02:07:03.310Z,18.40
2018-12-06T02:09:31.077Z,13.87
2018-12-06T02:12:03.695Z,13.93
2018-12-06T02:14:31.326Z,8.20
2018-12-06T02:16:58.984Z,7.93
2018-12-06T02:19:26.601Z,9.67
2018-12-06T02:21:54.223Z,12.93
2018-12-06T02:24:21.836Z,23.47
2018-12-06T02:26:50.353Z,11.00
2018-12-06T02:29:18.676Z,11.33
2018-12-06T02:31:47.152Z,12.50
2018-12-06T02:34:14.777Z,16.90
2018-12-06T02:36:42.512Z,7.10
2018-12-06T02:39:10.140Z,12.27
2018-12-06T02:41:37.774Z,12.63
2018-12-06T02:44:06.190Z,12.40
2018-12-06T02:46:34.570Z,13.57
2018-12-06T02:49:02.999Z,7.10
2018-12-06T02:51:30.683Z,11.60
2018-12-06T02:53:58.330Z,10.73
2018-12-06T02:56:26.869Z,16.43
2018-12-06T02:58:54.506Z,8.47
2018-12-06T03:01:22.132Z,10.93
2018-12-06T03:03:50.646Z,9.93
2018-12-06T03:06:19.288Z,9.50
2018-12-06T03:08:47.732Z,10.07
2018-12-06T03:11:16.294Z,10.90
2018-12-06T03:13:44.157Z,12.80
2018-12-06T03:16:11.783Z,11.27
2018-12-06T03:18:39.403Z,9.33
2018-12-06T03:21:07.105Z,11.77
2018-12-06T03:23:34.959Z,15.60
2018-12-06T03:26:02.741Z,11.50
2018-12-06T03:28:30.444Z,12.40
2018-12-06T03:30:58.229Z,8.97
2018-12-06T03:33:25.839Z,12.03
2018-12-06T03:35:54.244Z,9.93
2018-12-06T03:38:22.033Z,9.00
2018-12-06T03:40:49.824Z,8.27
2018-12-06T03:43:17.453Z,15.60
2018-12-06T03:45:45.112Z,8.67
2018-12-06T03:48:13.549Z,8.20
2018-12-06T03:50:41.163Z,9.70
2018-12-06T03:53:08.785Z,8.70
2018-12-06T03:55:36.500Z,10.23
2018-12-06T03:58:04.125Z,9.90
2018-12-06T04:00:31.742Z,9.47
2018-12-06T04:03:00.177Z,7.40
2018-12-06T04:05:27.797Z,10.70
2018-12-06T04:07:56.265Z,12.23
2018-12-06T04:10:23.994Z,9.13
2018-12-06T04:12:52.816Z,15.07
2018-12-06T04:15:20.599Z,16.00
2018-12-06T04:17:48.390Z,11.50
2018-12-06T04:20:16.180Z,9.00
2018-12-06T04:22:44.643Z,8.53
2018-12-06T04:25:14.162Z,11.23
2018-12-06T04:27:43.872Z,8.57
2018-12-06T04:30:11.482Z,8.00
2018-12-06T04:32:39.794Z,5.03
2018-12-06T04:35:07.599Z,5.73
2018-12-06T04:37:36.129Z,11.57
2018-12-06T04:40:04.706Z,12.77
2018-12-06T04:42:32.324Z,11.70
2018-12-06T04:44:59.947Z,10.70
2018-12-06T04:47:27.609Z,9.43
2018-12-06T04:49:55.221Z,15.33
2018-12-06T04:52:22.848Z,10.47
2018-12-06T04:54:50.514Z,11.13
2018-12-06T04:57:18.148Z,8.60
2018-12-06T04:59:46.563Z,8.93
2018-12-06T05:02:15.030Z,19.37
2018-12-06T05:04:43.565Z,7.23
2018-12-06T05:07:11.180Z,7.50
2018-12-06T05:09:38.794Z,8.67
2018-12-06T05:12:06.564Z,10.30
2018-12-06T05:14:35.084Z,15.43
2018-12-06T05:17:02.862Z,11.90
2018-12-06T05:19:30.568Z,7.57
2018-12-06T05:21:58.260Z,8.47
2018-12-06T05:24:25.890Z,7.60
2018-12-06T05:26:53.516Z,9.40
2018-12-06T05:29:21.939Z,10.70
2018-12-06T05:31:49.719Z,8.37
2018-12-06T05:34:17.512Z,10.77
2018-12-06T05:36:45.962Z,13.17
2018-12-06T05:39:13.584Z,9.50
2018-12-06T05:41:42.001Z,11.13
2018-12-06T05:44:10.420Z,7.70
2018-12-06T05:46:39.323Z,4.93
2018-12-06T05:49:07.019Z,7.43
2018-12-06T05:51:35.689Z,11.20
2018-12-06T05:54:03.403Z,6.83
2018-12-06T05:56:31.954Z,6.07
2018-12-06T05:58:59.578Z,7.70
2018-12-06T06:01:27.924Z,7.97
2018-12-06T06:03:55.557Z,15.20
2018-12-06T06:06:23.172Z,7.20
2018-12-06T06:08:51.626Z,8.53
2018-12-06T06:11:19.247Z,5.73
2018-12-06T06:13:47.781Z,7.00
2018-12-06T06:16:16.362Z,13.00
2018-12-06T06:18:44.749Z,5.83
2018-12-06T06:21:13.792Z,11.60
2018-12-06T06:23:41.751Z,8.30
2018-12-06T06:26:10.329Z,16.30
2018-12-06T06:28:37.952Z,11.80
2018-12-06T06:31:06.514Z,11.83
2018-12-06T06:33:34.136Z,5.70
2018-12-06T06:36:02.702Z,12.60
2018-12-06T06:38:30.301Z,10.67
2018-12-06T06:40:57.964Z,10.00
2018-12-06T06:43:26.515Z,12.03
2018-12-06T06:45:55.087Z,8.90
2018-12-06T06:48:22.730Z,8.83
2018-12-06T06:50:50.353Z,13.50
2018-12-06T06:53:18.943Z,7.70
2018-12-06T06:55:46.583Z,10.77
2018-12-06T06:58:15.020Z,13.30
2018-12-06T07:00:43.599Z,12.57
2018-12-06T07:03:12.572Z,7.57
2018-12-06T07:05:41.004Z,5.93
2018-12-06T07:08:09.562Z,7.17
2018-12-06T07:10:38.132Z,8.50
2018-12-06T07:13:05.809Z,5.13
2018-12-06T07:15:34.180Z,10.30
2018-12-06T07:18:02.577Z,8.10
2018-12-06T07:20:30.998Z,7.43
2018-12-06T07:23:00.967Z,9.10
2018-12-06T07:25:29.833Z,4.63
2018-12-06T07:27:57.462Z,9.43
2018-12-06T07:30:25.083Z,9.60
2018-12-06T07:32:53.737Z,13.27
2018-12-06T07:35:21.390Z,7.27
2018-12-06T07:37:49.861Z,7.60
2018-12-06T07:40:18.418Z,10.60
2018-12-06T07:42:46.891Z,6.43
2018-12-06T07:45:16.581Z,12.03
2018-12-06T07:47:46.171Z,8.10
2018-12-06T07:50:14.747Z,6.87
2018-12-06T07:52:42.367Z,9.63
2018-12-06T07:55:10.153Z,9.57
2018-12-06T07:57:38.670Z,9.37
2018-12-06T08:00:08.868Z,5.20
2018-12-06T08:02:36.589Z,6.57
2018-12-06T08:05:06.317Z,8.00
2018-12-06T08:07:35.627Z,11.80
2018-12-06T08:10:04.432Z,8.47
2018-12-06T08:12:32.074Z,6.60
2018-12-06T08:14:59.694Z,11.33
2018-12-06T08:17:28.098Z,5.03
2018-12-06T08:19:55.711Z,6.27
2018-12-06T08:22:23.344Z,7.90
2018-12-06T08:24:50.964Z,6.93
2018-12-06T08:27:19.525Z,4.00
2018-12-06T08:29:47.970Z,6.47
2018-12-06T08:32:19.207Z,9.97
2018-12-06T08:34:46.942Z,8.23
2018-12-06T08:37:14.658Z,9.40
2018-12-06T08:39:42.292Z,6.47
2018-12-06T08:42:09.908Z,5.67
2018-12-06T08:44:37.564Z,7.23
2018-12-06T08:47:06.119Z,9.20
2018-12-06T08:49:33.786Z,8.33
2018-12-06T08:52:02.260Z,5.33
2018-12-06T08:54:32.085Z,5.10
2018-12-06T08:56:59.711Z,5.60
2018-12-06T08:59:28.536Z,10.67
2018-12-06T09:01:56.159Z,6.97
2018-12-06T09:04:25.232Z,9.27
2018-12-06T09:06:52.890Z,9.77
2018-12-06T09:09:20.838Z,9.50
2018-12-06T09:11:49.401Z,5.50
2018-12-06T09:14:17.123Z,7.30
2018-12-06T09:16:45.483Z,4.77
2018-12-06T09:19:14.901Z,13.90
2018-12-06T09:21:43.318Z,6.23
2018-12-06T09:24:10.998Z,6.23
2018-12-06T09:26:40.149Z,6.87
2018-12-06T09:29:08.626Z,7.37
2018-12-06T09:31:37.110Z,6.07
2018-12-06T09:34:06.121Z,7.93
2018-12-06T09:36:34.581Z,13.83
2018-12-06T09:39:02.201Z,9.70
2018-12-06T09:41:29.951Z,7.00
2018-12-06T09:43:58.685Z,8.53
2018-12-06T09:46:26.415Z,6.90
2018-12-06T09:48:54.040Z,6.63
2018-12-06T09:51:21.755Z,8.00
2018-12-06T09:53:49.388Z,8.53
2018-12-06T09:56:17.795Z,12.17
2018-12-06T09:58:46.236Z,5.70
2018-12-06T10:01:13.860Z,8.70
2018-12-06T10:03:42.457Z,9.90
2018-12-06T10:06:10.081Z,7.70
2018-12-06T10:08:37.717Z,6.83
2018-12-06T10:11:05.344Z,14.37
2018-12-06T10:13:33.972Z,8.30
2018-12-06T10:16:04.552Z,10.13
2018-12-06T10:18:33.863Z,8.80
2018-12-06T10:21:03.624Z,6.47
2018-12-06T10:23:32.055Z,7.40
2018-12-06T10:26:00.456Z,9.23
2018-12-06T10:28:28.475Z,15.27
2018-12-06T10:30:56.084Z,8.20
2018-12-06T10:33:23.954Z,11.80
2018-12-06T10:35:53.323Z,9.20
2018-12-06T10:38:21.005Z,19.93
2018-12-06T10:40:49.521Z,10.30
2018-12-06T10:43:17.317Z,9.47
2018-12-06T10:45:45.955Z,7.97
2018-12-06T10:48:14.363Z,8.80
2018-12-06T10:50:42.172Z,7.37
2018-12-06T10:53:11.568Z,14.63
2018-12-06T10:55:40.189Z,10.20
2018-12-06T10:58:07.809Z,9.17
2018-12-06T11:00:42.087Z,8.27
2018-12-06T11:03:13.678Z,8.60
2018-12-06T11:05:41.334Z,15.37
2018-12-06T11:08:09.064Z,9.33
2018-12-06T11:10:36.793Z,7.90
2018-12-06T11:13:04.438Z,16.90
2018-12-06T11:15:32.053Z,8.40
2018-12-06T11:17:59.715Z,10.03
2018-12-06T11:20:29.825Z,13.10
2018-12-06T11:22:57.499Z,12.20
2018-12-06T11:25:25.271Z,10.00
2018-12-06T11:27:53.859Z,8.90
2018-12-06T11:30:22.396Z,16.20
2018-12-06T11:32:50.227Z,9.80
2018-12-06T11:35:18.539Z,11.87
2018-12-06T11:37:46.223Z,8.00
2018-12-06T11:40:13.917Z,7.53
2018-12-06T11:42:41.532Z,7.93
2018-12-06T11:45:10.144Z,9.13
2018-12-06T11:47:38.634Z,9.87
2018-12-06T11:50:08.315Z,6.70
2018-12-06T11:52:36.714Z,9.40
2018-12-06T11:55:05.415Z,8.60
2018-12-06T11:57:33.449Z,8.60
2018-12-06T12:00:01.061Z,8.50
2018-12-06T12:02:28.692Z,6.00
2018-12-06T12:04:56.369Z,14.70
2018-12-06T12:07:23.992Z,8.83
2018-12-06T12:09:51.611Z,7.23
2018-12-06T12:12:19.435Z,10.10
2018-12-06T12:14:47.167Z,8.67
2018-12-06T12:17:14.997Z,9.20
2018-12-06T12:19:45.687Z,8.10
2018-12-06T12:22:13.505Z,6.10
2018-12-06T12:24:41.300Z,9.43
2018-12-06T12:27:10.740Z,7.73
2018-12-06T12:29:38.685Z,7.60
2018-12-06T12:32:06.504Z,11.20
2018-12-06T12:34:34.304Z,9.60
2018-12-06T12:37:02.740Z,14.97
2018-12-06T12:39:30.444Z,7.87
2018-12-06T12:42:01.054Z,7.93
2018-12-06T12:44:28.835Z,9.13
2018-12-06T12:46:56.667Z,9.57
2018-12-06T12:49:24.283Z,8.43
2018-12-06T12:51:52.878Z,8.10
2018-12-06T12:54:21.277Z,9.90
2018-12-06T12:56:49.979Z,7.00
2018-12-06T12:59:17.669Z,6.87
2018-12-06T13:01:45.373Z,7.70
2018-12-06T13:04:13.198Z,8.03
2018-12-06T13:06:41.820Z,17.30
2018-12-06T13:09:09.624Z,6.17
2018-12-06T13:11:40.083Z,8.97
2018-12-06T13:14:08.910Z,5.43
2018-12-06T13:16:36.803Z,9.50
2018-12-06T13:19:04.819Z,8.57
2018-12-06T13:21:33.359Z,15.13
2018-12-06T13:24:01.168Z,11.00
2018-12-06T13:26:29.883Z,7.20
2018-12-06T13:28:57.527Z,8.37
2018-12-06T13:31:25.377Z,11.33
2018-12-06T13:33:53.104Z,11.90
2018-12-06T13:36:20.884Z,8.40
2018-12-06T13:38:49.417Z,13.07
2018-12-06T13:41:17.181Z,15.13
2018-12-06T13:43:45.074Z,10.50
2018-12-06T13:46:13.786Z,6.17
2018-12-06T13:48:45.368Z,5.90
2018-12-06T13:51:13.877Z,6.03
2018-12-06T13:53:41.664Z,7.07
2018-12-06T13:56:09.316Z,7.07
2018-12-06T13:58:37.088Z,13.27
2018-12-06T14:01:09.683Z,7.97
2018-12-06T14:03:37.612Z,11.27
2018-12-06T14:06:05.401Z,9.97
2018-12-06T14:08:34.946Z,7.77
2018-12-06T14:11:03.355Z,6.57
2018-12-06T14:13:31.530Z,9.70
2018-12-06T14:15:59.343Z,11.40
2018-12-06T14:18:27.132Z,10.13
2018-12-06T14:20:55.856Z,7.97
2018-12-06T14:23:23.643Z,8.60
2018-12-06T14:25:51.344Z,5.70
2018-12-06T14:28:19.122Z,12.50
2018-12-06T14:30:47.731Z,9.30
2018-12-06T14:33:15.527Z,13.73
2018-12-06T14:35:43.350Z,10.43
2018-12-06T14:38:11.120Z,10.93
2018-12-06T14:40:39.500Z,8.87
2018-12-06T14:43:08.256Z,11.40
2018-12-06T14:45:36.256Z,9.13
2018-12-06T14:48:05.588Z,7.17
2018-12-06T14:50:34.318Z,12.50
2018-12-06T14:53:01.975Z,8.43
2018-12-06T14:55:31.448Z,6.03
2018-12-06T14:57:59.475Z,11.57
2018-12-06T15:00:27.340Z,11.03
2018-12-06T15:02:55.056Z,12.43
2018-12-06T15:05:22.829Z,6.70
2018-12-06T15:07:51.362Z,11.10
2018-12-06T15:10:19.159Z,11.30
2018-12-06T15:12:46.938Z,13.67
2018-12-06T15:15:15.653Z,9.57
2018-12-06T15:17:43.448Z,9.60
2018-12-06T15:20:12.160Z,12.70
2018-12-06T15:22:39.801Z,10.77
2018-12-06T15:25:08.307Z,10.30
2018-12-06T15:27:37.860Z,8.87
2018-12-06T15:30:06.877Z,11.20
2018-12-06T15:32:34.542Z,8.73
2018-12-06T15:35:02.294Z,7.93
2018-12-06T15:37:31.107Z,8.17
2018-12-06T15:39:58.831Z,11.40
2018-12-06T15:42:26.583Z,11.33
2018-12-06T15:44:54.301Z,12.43
2018-12-06T15:47:22.071Z,13.70
2018-12-06T15:49:50.682Z,8.83
2018-12-06T15:52:18.589Z,9.30
2018-12-06T15:54:46.206Z,8.57
2018-12-06T15:57:13.828Z,7.47
2018-12-06T15:59:41.468Z,8.43
2018-12-06T16:02:09.356Z,8.03
2018-12-06T16:04:37.250Z,11.97
2018-12-06T16:07:06.087Z,11.33
2018-12-06T16:09:33.722Z,12.63
2018-12-06T16:12:02.370Z,9.00
2018-12-06T16:14:29.989Z,10.00
2018-12-06T16:16:57.755Z,12.20
2018-12-06T16:19:25.424Z,10.30
2018-12-06T16:21:54.043Z,10.40
2018-12-06T16:24:21.791Z,13.33
2018-12-06T16:26:50.501Z,10.83
2018-12-06T16:29:19.117Z,9.40
2018-12-06T16:31:46.827Z,10.57
2018-12-06T16:34:15.978Z,13.97
2018-12-06T16:36:44.392Z,12.27
2018-12-06T16:39:12.168Z,16.43
2018-12-06T16:41:40.685Z,15.07
2018-12-06T16:44:08.301Z,16.00
2018-12-06T16:46:35.918Z,17.33
2018-12-06T16:49:10.116Z,10.77
2018-12-06T16:51:35.597Z,14.10
2018-12-06T16:54:03.358Z,17.00
2018-12-06T16:56:33.161Z,14.83
2018-12-06T16:59:01.036Z,11.07
2018-12-06T17:01:28.697Z,12.20
2018-12-06T17:03:56.564Z,19.83
2018-12-06T17:06:29.603Z,15.00
2018-12-06T17:08:57.252Z,20.13
2018-12-06T17:11:25.591Z,11.93
2018-12-06T17:13:53.216Z,11.50
2018-12-06T17:16:21.782Z,15.47
2018-12-06T17:18:49.780Z,14.90
2018-12-06T17:21:20.065Z,18.03
2018-12-06T17:23:47.694Z,12.43
2018-12-06T17:26:16.113Z,14.60
2018-12-06T17:28:43.838Z,12.67
2018-12-06T17:31:11.417Z,17.67
2018-12-06T17:33:39.024Z,16.53
2018-12-06T17:36:06.645Z,14.67
2018-12-06T17:38:35.222Z,18.00
2018-12-06T17:41:03.772Z,15.50
2018-12-06T17:43:32.165Z,20.57
2018-12-06T17:46:01.119Z,17.00
2018-12-06T17:48:29.574Z,21.53
2018-12-06T17:50:58.112Z,14.70
2018-12-06T17:53:25.829Z,19.30
2018-12-06T17:55:54.445Z,13.90
2018-12-06T17:58:22.077Z,23.93
2018-12-06T18:00:49.857Z,20.20
2018-12-06T18:03:18.092Z,18.90
2018-12-06T18:05:45.904Z,18.43
2018-12-06T18:08:14.397Z,21.47
2018-12-06T18:10:42.582Z,21.17
2018-12-06T18:13:10.456Z,21.17
2018-12-06T18:15:38.289Z,20.70
2018-12-06T18:18:06.081Z,19.80
2018-12-06T18:20:33.779Z,23.63
2018-12-06T18:23:02.087Z,21.13
2018-12-06T18:25:29.872Z,19.53
2018-12-06T18:27:57.719Z,22.53
2018-12-06T18:30:26.176Z,20.20
2018-12-06T18:32:53.927Z,15.63
2018-12-06T18:35:21.540Z,20.73
2018-12-06T18:37:50.206Z,17.10
2018-12-06T18:40:19.491Z,19.50
2018-12-06T18:42:47.868Z,19.97
2018-12-06T18:45:16.382Z,18.57
2018-12-06T18:47:44.169Z,27.87
2018-12-06T18:50:12.767Z,18.00
2018-12-06T18:52:40.443Z,20.57
2018-12-06T18:55:09.130Z,18.40
2018-12-06T18:57:37.718Z,20.37
2018-12-06T19:00:07.958Z,20.80
2018-12-06T19:02:35.636Z,19.53
2018-12-06T19:05:04.508Z,20.27
2018-12-06T19:07:33.391Z,22.30
2018-12-06T19:10:01.104Z,21.10
2018-12-06T19:12:28.868Z,22.97
2018-12-06T19:14:56.525Z,21.23
2018-12-06T19:17:24.349Z,24.90
2018-12-06T19:19:52.163Z,22.13
2018-12-06T19:22:20.792Z,24.30
2018-12-06T19:24:48.597Z,22.53
2018-12-06T19:27:16.421Z,21.67
2018-12-06T19:29:44.297Z,28.43
2018-12-06T19:32:14.052Z,23.30
2018-12-06T19:34:42.172Z,26.00
2018-12-06T19:37:10.089Z,27.10
2018-12-06T19:39:38.666Z,20.97
2018-12-06T19:42:06.387Z,22.90
2018-12-06T19:44:34.180Z,22.20
2018-12-06T19:47:02.639Z,21.10
2018-12-06T19:49:30.430Z,23.70
2018-12-06T19:51:58.219Z,26.43
2018-12-06T19:54:26.010Z,22.37
2018-12-06T19:56:54.804Z,22.50
2018-12-06T19:59:23.241Z,22.63
2018-12-06T20:01:51.144Z,20.60
2018-12-06T20:04:18.971Z,30.50
2018-12-06T20:06:46.786Z,22.33
2018-12-06T20:09:15.458Z,28.17
2018-12-06T20:11:43.304Z,21.17
2018-12-06T20:14:11.115Z,22.90
2018-12-06T20:17:09.951Z,27.60
2018-12-06T20:19:37.749Z,23.67
2018-12-06T20:22:08.173Z,30.20
2018-12-06T20:24:37.863Z,24.63
2018-12-06T20:27:05.583Z,26.20
2018-12-06T20:29:34.163Z,28.33
2018-12-06T20:32:03.228Z,25.57
2018-12-06T20:34:32.983Z,25.23
2018-12-06T20:37:01.296Z,24.73
2018-12-06T20:39:29.082Z,26.27
2018-12-06T20:41:56.872Z,29.33
2018-12-06T20:44:24.662Z,27.50
2018-12-06T20:46:52.473Z,31.67
2018-12-06T20:49:20.263Z,32.00
2018-12-06T20:51:48.987Z,27.80
2018-12-06T20:54:17.460Z,24.13
2018-12-06T20:56:45.980Z,28.47
2018-12-06T20:59:13.809Z,27.87
2018-12-06T21:01:41.507Z,29.50
2018-12-06T21:04:09.295Z,30.60
2018-12-06T21:06:37.114Z,28.70
2018-12-06T21:09:06.364Z,32.70
2018-12-06T21:11:34.153Z,24.47
2018-12-06T21:14:02.326Z,30.23
2018-12-06T21:16:30.147Z,30.67
2018-12-06T21:18:58.044Z,30.70
2018-12-06T21:21:25.948Z,29.43
2018-12-06T21:23:53.813Z,23.33
2018-12-06T21:26:21.519Z,31.50
2018-12-06T21:28:50.128Z,24.33
2018-12-06T21:31:17.917Z,26.87
2018-12-06T21:33:45.716Z,29.10
2018-12-06T21:36:13.521Z,26.27
2018-12-06T21:38:42.131Z,21.30
2018-12-06T21:41:09.922Z,25.77
2018-12-06T21:43:38.645Z,27.23
2018-12-06T21:46:06.447Z,22.70
2018-12-06T21:48:35.060Z,27.73
2018-12-06T21:51:03.780Z,27.20
2018-12-06T21:53:32.400Z,25.90
2018-12-06T21:56:00.303Z,23.77
2018-12-06T21:58:28.182Z,24.27
2018-12-06T22:00:55.983Z,25.77
2018-12-06T22:03:23.773Z,27.50
2018-12-06T22:05:51.566Z,27.73
2018-12-06T22:08:19.367Z,24.73
2018-12-06T22:10:47.175Z,25.07
2018-12-06T22:13:14.967Z,25.37
2018-12-06T22:15:42.684Z,28.53
2018-12-06T22:18:10.546Z,29.83
2018-12-06T22:20:38.375Z,29.90
2018-12-06T22:23:06.870Z,32.67
2018-12-06T22:25:36.809Z,24.47
2018-12-06T22:28:05.959Z,32.00
2018-12-06T22:30:33.773Z,34.20
2018-12-06T22:33:02.306Z,29.07
2018-12-06T22:35:30.092Z,29.20
2018-12-06T22:37:57.829Z,31.97
2018-12-06T22:40:25.617Z,31.30
2018-12-06T22:42:53.401Z,32.10
2018-12-06T22:48:22.089Z,27.83
2018-12-06T22:50:49.902Z,30.63
2018-12-06T22:53:18.533Z,29.63
2018-12-06T22:55:46.326Z,29.33
2018-12-06T22:58:14.849Z,29.27
2018-12-06T23:00:45.035Z,25.97
2018-12-06T23:03:12.846Z,25.87
2018-12-06T23:05:40.705Z,29.13
2018-12-06T23:08:08.455Z,30.93
2018-12-06T23:10:36.281Z,31.33
2018-12-06T23:13:04.094Z,27.50
2018-12-06T23:15:32.172Z,28.73
2018-12-06T23:17:59.996Z,29.20
2018-12-06T23:20:27.675Z,28.00
2018-12-06T23:22:55.486Z,26.97
2018-12-06T23:25:23.116Z,28.30
2018-12-06T23:27:50.871Z,25.77
2018-12-06T23:30:18.498Z,24.40
2018-12-06T23:32:46.115Z,24.90
2018-12-06T23:35:13.834Z,23.83
2018-12-06T23:37:41.661Z,22.93
2018-12-06T23:40:09.516Z,20.03
2018-12-06T23:42:37.257Z,20.40
2018-12-06T23:45:06.275Z,24.13
2018-12-06T23:47:34.891Z,20.27
2018-12-06T23:50:03.687Z,22.53
2018-12-06T23:52:32.120Z,19.73
2018-12-06T23:55:01.062Z,22.70
2018-12-06T23:57:28.763Z,21.57
2018-12-06T23:59:57.454Z,19.33
